Time;durP1;ratioP1;P1;durP2;ratioP2;P2;SDS_P1;SDS_P2;PMS_P1;PMS_P2;Temp;Humidity;BMP_temperature;BMP_pressure;BME280_temperature;BME280_humidity;BME280_pressure;Samples;Min_cycle;Max_cycle;Signal;HPM_P1;HPM_P2
2023/08/27 00:02:12;;;;;;;16.43;9.37;;;16.00;99.90;;;;;;5046505;28;20563;-68
2023/08/27 00:04:42;;;;;;;16.17;10.87;;;16.10;99.90;;;;;;5045400;28;20506;-66
2023/08/27 00:07:10;;;;;;;15.10;9.10;;;16.10;99.90;;;;;;5043899;28;20478;-67
2023/08/27 00:09:38;;;;;;;14.00;9.13;;;16.20;99.90;;;;;;5047558;28;20853;-67
2023/08/27 00:12:06;;;;;;;14.50;8.93;;;16.30;99.90;;;;;;5047187;28;20450;-67
2023/08/27 00:14:34;;;;;;;13.20;8.37;;;16.30;99.90;;;;;;5047487;28;20809;-67
2023/08/27 00:17:03;;;;;;;13.90;8.33;;;16.20;99.90;;;;;;5047181;28;20467;-68
2023/08/27 00:19:31;;;;;;;11.87;7.43;;;16.10;99.90;;;;;;5043520;28;20478;-68
2023/08/27 00:22:00;;;;;;;16.93;8.97;;;16.00;99.90;;;;;;5030813;28;20448;-67
2023/08/27 00:24:28;;;;;;;14.10;8.70;;;16.10;99.90;;;;;;5027443;28;20837;-69
2023/08/27 00:26:56;;;;;;;17.00;9.80;;;16.00;99.90;;;;;;5028145;28;20468;-70
2023/08/27 00:29:23;;;;;;;16.83;9.23;;;16.00;99.90;;;;;;5032527;28;20451;-65
2023/08/27 00:31:51;;;;;;;13.20;8.87;;;16.00;99.90;;;;;;5033064;28;20460;-68
2023/08/27 00:34:19;;;;;;;16.90;9.57;;;16.10;99.90;;;;;;5032233;28;20447;-67
2023/08/27 00:36:47;;;;;;;14.83;8.87;;;16.00;99.90;;;;;;5033995;28;20465;-68
2023/08/27 00:39:16;;;;;;;17.90;11.27;;;16.00;99.90;;;;;;5031864;28;20445;-66
2023/08/27 00:41:44;;;;;;;14.07;8.03;;;16.10;99.90;;;;;;5033038;28;20452;-68
2023/08/27 00:44:12;;;;;;;15.53;8.70;;;16.10;99.90;;;;;;5032461;28;20564;-68
2023/08/27 00:46:40;;;;;;;14.37;8.77;;;16.10;99.90;;;;;;5032577;28;20543;-70
2023/08/27 00:49:08;;;;;;;19.80;10.07;;;16.10;99.90;;;;;;5032763;28;20531;-69
2023/08/27 00:51:38;;;;;;;12.87;8.60;;;16.20;99.90;;;;;;5032182;28;20437;-69
2023/08/27 00:54:07;;;;;;;13.10;8.30;;;16.30;99.90;;;;;;5045906;28;20472;-68
2023/08/27 00:56:36;;;;;;;12.90;7.90;;;16.50;99.90;;;;;;5052409;28;20491;-69
2023/08/27 00:59:05;;;;;;;12.90;8.10;;;16.60;99.90;;;;;;5052526;28;20506;-67
2023/08/27 01:01:34;;;;;;;13.97;8.77;;;16.60;99.90;;;;;;5052039;28;20526;-67
2023/08/27 01:04:02;;;;;;;16.87;9.47;;;16.50;99.90;;;;;;5052124;28;20451;-68
2023/08/27 01:06:30;;;;;;;15.70;9.53;;;16.40;99.90;;;;;;5052037;28;20490;-67
2023/08/27 01:09:09;;;;;;;14.53;9.23;;;16.30;99.90;;;;;;5049321;28;20458;-69
2023/08/27 01:11:48;;;;;;;14.70;8.30;;;16.30;99.90;;;;;;5032447;28;20444;-69
2023/08/27 01:14:17;;;;;;;13.23;8.13;;;16.50;99.90;;;;;;5031530;28;20462;-67
2023/08/27 01:16:47;;;;;;;17.73;8.97;;;16.40;99.90;;;;;;5031995;28;20461;-68
2023/08/27 01:19:16;;;;;;;12.57;7.93;;;16.30;99.90;;;;;;5031768;28;20446;-68
2023/08/27 01:21:45;;;;;;;15.00;8.37;;;16.30;99.90;;;;;;5032104;28;20543;-68
2023/08/27 01:24:13;;;;;;;14.20;7.80;;;16.30;99.90;;;;;;5031279;28;20448;-68
2023/08/27 01:26:47;;;;;;;13.47;8.00;;;16.50;99.90;;;;;;5032728;28;20575;-69
2023/08/27 01:29:24;;;;;;;15.70;9.27;;;16.70;99.90;;;;;;5032046;28;20447;-68
2023/08/27 01:31:58;;;;;;;14.40;9.03;;;16.70;99.90;;;;;;5031596;28;20531;-68
2023/08/27 01:34:26;;;;;;;14.50;9.30;;;16.70;99.90;;;;;;5031386;28;20994;-68
2023/08/27 01:36:56;;;;;;;15.83;8.93;;;16.60;99.90;;;;;;5031279;28;20468;-68
2023/08/27 01:39:24;;;;;;;15.93;8.83;;;16.60;99.90;;;;;;5031452;28;20473;-69
2023/08/27 01:41:52;;;;;;;14.93;9.30;;;16.50;99.90;;;;;;5031981;28;20539;-70
2023/08/27 01:44:20;;;;;;;13.80;7.70;;;16.50;99.90;;;;;;5031090;28;20494;-68
2023/08/27 01:46:48;;;;;;;13.40;8.10;;;16.50;99.90;;;;;;5031235;28;20551;-68
2023/08/27 01:49:16;;;;;;;13.70;8.33;;;16.60;99.90;;;;;;5031528;28;20453;-69
2023/08/27 01:51:44;;;;;;;16.83;8.30;;;16.50;99.90;;;;;;5048239;28;20897;-69
2023/08/27 01:54:14;;;;;;;16.23;8.50;;;16.40;99.90;;;;;;5050508;28;20494;-70
2023/08/27 01:56:42;;;;;;;14.27;9.70;;;16.50;99.90;;;;;;5050884;28;20872;-70
2023/08/27 01:59:10;;;;;;;14.00;9.83;;;16.50;99.90;;;;;;5051018;28;20443;-67
2023/08/27 02:01:38;;;;;;;15.73;10.57;;;16.50;99.90;;;;;;5050343;28;20525;-66
2023/08/27 02:04:06;;;;;;;14.57;9.40;;;16.50;99.90;;;;;;5046083;28;20448;-68
2023/08/27 02:06:34;;;;;;;21.77;10.20;;;16.50;99.90;;;;;;5030901;28;20460;-67
2023/08/27 02:09:02;;;;;;;17.97;9.60;;;16.60;99.90;;;;;;5030729;28;21025;-69
2023/08/27 02:11:32;;;;;;;15.03;9.23;;;16.70;99.90;;;;;;5030815;28;20440;-70
2023/08/27 02:14:00;;;;;;;17.00;9.97;;;16.70;99.90;;;;;;5030718;28;20440;-68
2023/08/27 02:16:27;;;;;;;17.53;9.73;;;16.50;99.90;;;;;;5030545;28;20620;-68
2023/08/27 02:18:55;;;;;;;17.57;11.13;;;16.50;99.90;;;;;;5040550;28;20455;-67
2023/08/27 02:21:23;;;;;;;15.50;9.07;;;16.40;99.90;;;;;;5050251;28;20490;-68
2023/08/27 02:23:51;;;;;;;13.93;9.43;;;16.40;99.90;;;;;;5050385;28;20960;-68
2023/08/27 02:26:19;;;;;;;16.50;10.43;;;16.50;99.90;;;;;;5050336;28;20970;-67
2023/08/27 02:28:48;;;;;;;16.70;9.17;;;16.60;99.90;;;;;;5050004;28;20973;-68
2023/08/27 02:31:16;;;;;;;14.07;8.70;;;16.80;99.90;;;;;;5050580;28;20443;-68
2023/08/27 02:33:45;;;;;;;11.40;7.40;;;16.80;99.90;;;;;;5032476;28;20453;-68
2023/08/27 02:36:13;;;;;;;14.53;8.50;;;16.80;99.90;;;;;;5030205;28;20504;-69
2023/08/27 02:38:41;;;;;;;16.13;9.37;;;16.70;99.90;;;;;;5030238;28;20510;-66
2023/08/27 02:41:08;;;;;;;14.33;8.23;;;16.80;99.90;;;;;;5030578;28;20869;-68
2023/08/27 02:43:36;;;;;;;14.60;8.57;;;16.70;99.90;;;;;;5030140;28;20857;-68
2023/08/27 02:46:06;;;;;;;13.40;7.60;;;16.80;99.90;;;;;;5030040;28;20473;-68
2023/08/27 02:48:34;;;;;;;14.83;7.90;;;16.70;99.90;;;;;;5037393;28;20452;-68
2023/08/27 02:51:02;;;;;;;16.47;9.60;;;16.70;99.90;;;;;;5049283;28;20444;-68
2023/08/27 02:53:30;;;;;;;15.03;8.77;;;16.70;99.90;;;;;;5049871;28;20535;-68
2023/08/27 02:55:58;;;;;;;13.20;7.43;;;16.60;99.90;;;;;;5049727;28;20803;-68
2023/08/27 02:58:26;;;;;;;14.13;7.40;;;16.60;99.90;;;;;;5049946;28;20474;-68
2023/08/27 03:00:54;;;;;;;13.13;7.43;;;16.60;99.90;;;;;;5049871;28;20479;-68
2023/08/27 03:03:25;;;;;;;13.97;7.27;;;16.70;99.90;;;;;;5049640;28;20440;-68
2023/08/27 03:05:53;;;;;;;14.00;7.50;;;16.70;99.90;;;;;;5048282;28;20623;-67
2023/08/27 03:08:21;;;;;;;13.50;8.83;;;16.70;99.90;;;;;;5049345;28;21363;-68
2023/08/27 03:10:49;;;;;;;16.33;9.00;;;16.60;99.90;;;;;;5050063;28;20441;-68
2023/08/27 03:13:17;;;;;;;15.80;9.07;;;16.50;99.90;;;;;;5049001;28;20514;-66
2023/08/27 03:15:45;;;;;;;13.37;8.17;;;16.60;99.90;;;;;;5049555;28;20448;-68
2023/08/27 03:18:13;;;;;;;12.87;8.50;;;16.60;99.90;;;;;;5049648;28;20475;-68
2023/08/27 03:20:42;;;;;;;15.17;9.13;;;16.70;99.90;;;;;;5047833;28;20450;-69
2023/08/27 03:23:10;;;;;;;14.93;8.23;;;16.80;99.90;;;;;;5049514;28;20933;-68
2023/08/27 03:25:38;;;;;;;14.60;9.20;;;16.80;99.90;;;;;;5049343;28;20456;-68
2023/08/27 03:28:06;;;;;;;13.77;7.70;;;16.80;99.90;;;;;;5049367;28;21050;-67
2023/08/27 03:30:34;;;;;;;13.60;8.03;;;16.90;99.90;;;;;;5049544;28;20536;-67
2023/08/27 03:33:02;;;;;;;14.77;9.17;;;16.90;99.90;;;;;;5049167;28;20934;-68
2023/08/27 03:35:30;;;;;;;11.93;8.37;;;16.70;99.90;;;;;;5049622;28;20474;-67
2023/08/27 03:37:59;;;;;;;14.27;9.00;;;16.70;99.90;;;;;;5039062;28;20566;-67
2023/08/27 03:40:27;;;;;;;19.50;8.97;;;16.60;99.90;;;;;;5029749;28;20449;-68
2023/08/27 03:42:55;;;;;;;13.93;8.63;;;16.60;99.90;;;;;;5028656;28;20476;-67
2023/08/27 03:45:23;;;;;;;13.27;8.20;;;16.80;99.90;;;;;;5029720;28;20447;-68
2023/08/27 03:47:51;;;;;;;12.77;8.13;;;16.80;99.90;;;;;;5029217;28;20519;-69
2023/08/27 03:50:19;;;;;;;15.53;9.23;;;16.80;99.90;;;;;;5034837;28;20444;-69
2023/08/27 03:52:49;;;;;;;17.40;11.20;;;16.80;99.90;;;;;;5049061;28;20448;-68
2023/08/27 03:55:19;;;;;;;23.63;14.10;;;16.80;99.90;;;;;;5049127;28;20461;-68
2023/08/27 03:57:47;;;;;;;19.77;12.63;;;16.70;99.90;;;;;;5049491;28;20572;-67
2023/08/27 04:00:15;;;;;;;20.63;12.13;;;16.70;99.90;;;;;;5049304;28;20514;-68
2023/08/27 04:02:45;;;;;;;22.00;12.53;;;16.60;99.90;;;;;;5051761;28;20489;-66
2023/08/27 04:05:13;;;;;;;20.47;12.27;;;16.60;99.90;;;;;;5039744;28;20455;-69
2023/08/27 04:07:41;;;;;;;21.70;13.50;;;16.50;99.90;;;;;;5033073;28;20488;-69
2023/08/27 04:10:10;;;;;;;21.40;13.60;;;16.60;99.90;;;;;;5038187;28;20534;-68
2023/08/27 04:12:39;;;;;;;23.00;13.83;;;16.60;99.90;;;;;;5052876;28;20439;-69
2023/08/27 04:15:08;;;;;;;20.63;13.20;;;16.60;99.90;;;;;;5053180;28;20454;-68
2023/08/27 04:17:36;;;;;;;19.80;12.70;;;16.60;99.90;;;;;;5052451;28;20546;-68
2023/08/27 04:20:05;;;;;;;20.47;12.93;;;16.50;99.90;;;;;;5052231;28;20493;-68
2023/08/27 04:22:33;;;;;;;18.47;12.40;;;16.50;99.90;;;;;;5032526;28;21005;-68
2023/08/27 04:25:02;;;;;;;21.47;13.33;;;16.40;99.90;;;;;;5032978;28;20502;-68
2023/08/27 04:27:29;;;;;;;21.37;12.37;;;16.50;99.90;;;;;;5032510;28;20468;-67
2023/08/27 04:29:59;;;;;;;27.10;15.13;;;16.60;99.90;;;;;;5032868;28;20448;-68
2023/08/27 04:32:27;;;;;;;32.37;15.43;;;16.60;99.90;;;;;;5032351;28;20518;-68
2023/08/27 04:34:55;;;;;;;23.77;12.00;;;16.50;99.90;;;;;;5032221;28;20529;-68
2023/08/27 04:37:22;;;;;;;21.47;12.97;;;16.50;99.90;;;;;;5033576;28;20475;-68
2023/08/27 04:39:50;;;;;;;21.80;12.57;;;16.50;99.90;;;;;;5032271;28;20529;-69
2023/08/27 04:42:18;;;;;;;19.90;11.27;;;16.40;99.90;;;;;;5032415;28;20487;-70
2023/08/27 04:44:46;;;;;;;16.63;11.10;;;16.40;99.90;;;;;;5031839;28;20453;-69
2023/08/27 04:47:16;;;;;;;15.90;10.50;;;16.20;99.90;;;;;;5032257;28;20469;-69
2023/08/27 04:49:44;;;;;;;15.97;10.43;;;16.20;99.90;;;;;;5032290;28;20466;-67
2023/08/27 04:52:14;;;;;;;17.47;8.80;;;16.30;99.90;;;;;;5032354;28;20465;-67
2023/08/27 04:54:57;;;;;;;17.70;11.07;;;16.30;99.90;;;;;;5047691;28;20487;-68
2023/08/27 04:57:25;;;;;;;15.13;9.53;;;16.30;99.90;;;;;;5051665;28;20468;-66
2023/08/27 04:59:55;;;;;;;14.90;8.90;;;16.30;99.90;;;;;;5051879;28;20542;-67
2023/08/27 05:02:24;;;;;;;13.00;8.23;;;16.30;99.90;;;;;;5051680;28;20479;-69
2023/08/27 05:04:52;;;;;;;15.77;9.20;;;16.30;99.90;;;;;;5052148;28;20450;-67
2023/08/27 05:07:20;;;;;;;13.33;7.70;;;16.30;99.90;;;;;;5051809;28;20531;-67
2023/08/27 05:09:48;;;;;;;15.07;9.00;;;16.30;99.90;;;;;;5050068;28;20458;-67
2023/08/27 05:12:16;;;;;;;17.20;10.60;;;16.40;99.90;;;;;;5031925;28;20801;-68
2023/08/27 05:14:44;;;;;;;17.43;11.00;;;16.40;99.90;;;;;;5031094;28;20891;-67
2023/08/27 05:17:12;;;;;;;16.20;9.50;;;16.30;99.90;;;;;;5031986;28;20475;-67
2023/08/27 05:19:42;;;;;;;16.17;10.57;;;16.30;99.90;;;;;;5031700;28;20840;-67
2023/08/27 05:22:10;;;;;;;16.40;12.03;;;16.40;99.90;;;;;;5031720;28;21029;-68
2023/08/27 05:24:37;;;;;;;17.13;10.80;;;16.60;99.90;;;;;;5031167;28;20542;-68
2023/08/27 05:27:05;;;;;;;16.97;11.63;;;16.70;99.90;;;;;;5039273;28;20995;-69
2023/08/27 05:29:33;;;;;;;17.30;10.90;;;16.80;99.90;;;;;;5051903;28;20520;-68
2023/08/27 05:32:02;;;;;;;14.53;10.10;;;16.90;99.90;;;;;;5051558;28;20440;-69
2023/08/27 05:34:30;;;;;;;14.90;10.00;;;17.00;99.90;;;;;;5051152;28;20994;-67
2023/08/27 05:37:00;;;;;;;14.83;10.73;;;16.80;99.90;;;;;;5051130;28;20460;-66
2023/08/27 05:39:28;;;;;;;14.10;10.70;;;16.90;99.90;;;;;;5051426;28;20494;-68
2023/08/27 05:41:56;;;;;;;14.33;9.63;;;17.00;99.90;;;;;;5050897;28;20440;-67
2023/08/27 05:44:24;;;;;;;14.80;9.40;;;17.00;99.90;;;;;;5036681;28;20467;-67
2023/08/27 05:46:52;;;;;;;15.00;10.30;;;17.00;99.90;;;;;;5031181;28;20586;-67
2023/08/27 05:49:20;;;;;;;16.93;10.77;;;17.10;99.90;;;;;;5031267;28;20449;-68
2023/08/27 05:51:48;;;;;;;14.60;9.97;;;17.10;99.90;;;;;;5048797;28;20448;-68
2023/08/27 05:54:17;;;;;;;14.10;9.40;;;17.20;99.90;;;;;;5050389;28;20531;-68
2023/08/27 05:56:45;;;;;;;13.67;8.87;;;17.30;99.90;;;;;;5050944;28;20554;-67
2023/08/27 05:59:14;;;;;;;14.57;9.70;;;17.20;99.90;;;;;;5050930;28;20486;-66
2023/08/27 06:01:42;;;;;;;18.60;11.20;;;17.10;99.90;;;;;;5051022;28;20458;-67
2023/08/27 06:04:10;;;;;;;21.53;11.77;;;17.10;99.90;;;;;;5045842;28;20477;-69
2023/08/27 06:06:40;;;;;;;16.17;11.10;;;17.10;99.90;;;;;;5030805;28;20477;-68
2023/08/27 06:09:08;;;;;;;16.10;8.93;;;17.20;99.90;;;;;;5030975;28;20452;-67
2023/08/27 06:11:37;;;;;;;15.37;9.13;;;17.30;99.90;;;;;;5030759;28;20445;-67
2023/08/27 06:14:05;;;;;;;12.50;8.43;;;17.30;99.90;;;;;;5030489;28;20445;-68
2023/08/27 06:16:33;;;;;;;13.57;9.90;;;17.40;99.90;;;;;;5030479;28;20877;-68
2023/08/27 06:19:02;;;;;;;15.87;9.77;;;17.40;99.90;;;;;;5030638;28;20477;-67
2023/08/27 06:21:30;;;;;;;16.70;10.43;;;17.40;99.90;;;;;;5031811;28;20555;-67
2023/08/27 06:23:58;;;;;;;16.83;9.80;;;17.30;99.90;;;;;;5030313;28;20480;-67
2023/08/27 06:26:26;;;;;;;17.03;9.20;;;17.30;99.90;;;;;;5029313;28;20974;-67
2023/08/27 06:28:55;;;;;;;13.37;7.87;;;17.50;99.90;;;;;;5030619;28;20540;-67
2023/08/27 06:31:23;;;;;;;12.43;8.10;;;17.50;99.90;;;;;;5030331;28;20449;-67
2023/08/27 06:33:52;;;;;;;15.67;8.83;;;17.50;99.90;;;;;;5046254;28;20950;-67
2023/08/27 06:36:20;;;;;;;14.03;8.90;;;17.60;99.90;;;;;;5049619;28;20467;-67
2023/08/27 06:38:48;;;;;;;11.30;6.47;;;17.60;99.90;;;;;;5050022;28;20445;-67
2023/08/27 06:41:16;;;;;;;13.33;7.50;;;17.40;99.90;;;;;;5050455;28;20458;-68
2023/08/27 06:43:44;;;;;;;12.67;7.57;;;17.40;99.90;;;;;;5049549;28;20481;-67
2023/08/27 06:46:13;;;;;;;16.50;7.97;;;17.40;99.90;;;;;;5049910;28;20502;-68
2023/08/27 06:48:41;;;;;;;19.13;9.23;;;17.50;99.90;;;;;;5050297;28;20505;-68
2023/08/27 06:51:09;;;;;;;18.47;8.33;;;17.50;99.90;;;;;;5050061;28;20436;-67
2023/08/27 06:53:37;;;;;;;13.57;9.70;;;17.50;99.90;;;;;;5042467;28;20540;-68
2023/08/27 06:56:05;;;;;;;14.27;9.07;;;17.60;99.90;;;;;;5029846;28;20460;-67
2023/08/27 06:58:33;;;;;;;16.67;8.10;;;17.60;99.90;;;;;;5030150;28;20520;-67
2023/08/27 07:01:04;;;;;;;12.63;6.40;;;17.80;99.90;;;;;;5030115;28;20455;-67
2023/08/27 07:03:34;;;;;;;11.80;6.07;;;17.80;99.90;;;;;;5029668;28;21002;-67
2023/08/27 07:06:05;;;;;;;9.70;5.23;;;17.90;99.90;;;;;;5035061;28;20460;-69
2023/08/27 07:08:33;;;;;;;11.37;6.27;;;17.90;99.90;;;;;;5049562;28;20958;-67
2023/08/27 07:11:02;;;;;;;11.20;5.27;;;17.90;99.90;;;;;;5033194;28;20457;-68
2023/08/27 07:13:30;;;;;;;12.47;6.20;;;17.90;99.90;;;;;;5029566;28;20443;-68
2023/08/27 07:15:59;;;;;;;12.30;6.43;;;17.90;99.90;;;;;;5029687;28;20939;-67
2023/08/27 07:18:27;;;;;;;12.33;6.03;;;17.90;99.90;;;;;;5029677;28;20441;-67
2023/08/27 07:20:56;;;;;;;12.37;6.27;;;18.00;99.90;;;;;;5029820;28;20441;-67
2023/08/27 07:23:26;;;;;;;11.23;5.03;;;18.10;99.90;;;;;;5029224;28;21017;-69
2023/08/27 07:25:54;;;;;;;8.67;3.97;;;18.20;99.90;;;;;;5030312;28;20503;-67
2023/08/27 07:28:22;;;;;;;10.77;4.20;;;18.20;99.90;;;;;;5029640;28;20924;-67
2023/08/27 07:30:50;;;;;;;8.50;3.80;;;18.30;99.90;;;;;;5029496;28;20444;-67
2023/08/27 07:33:18;;;;;;;9.30;3.50;;;18.30;99.90;;;;;;5029305;28;20445;-67
2023/08/27 07:35:46;;;;;;;7.47;2.97;;;18.60;99.90;;;;;;5029348;28;20502;-67
2023/08/27 07:38:16;;;;;;;8.90;3.07;;;18.70;99.90;;;;;;5033566;28;20862;-67
2023/08/27 07:40:46;;;;;;;8.30;2.67;;;18.90;99.90;;;;;;5034292;28;20436;-67
2023/08/27 07:43:14;;;;;;;9.40;3.40;;;19.10;99.90;;;;;;5037542;28;20508;-67
2023/08/27 07:45:42;;;;;;;7.07;2.30;;;19.10;99.90;;;;;;5053689;28;20535;-67
2023/08/27 07:48:10;;;;;;;9.90;2.53;;;19.30;99.90;;;;;;5053355;28;20501;-67
2023/08/27 07:50:40;;;;;;;8.27;2.47;;;19.40;99.90;;;;;;5052766;28;20448;-67
2023/08/27 07:53:08;;;;;;;8.27;2.80;;;19.40;99.90;;;;;;5053033;28;20446;-68
2023/08/27 07:55:37;;;;;;;8.60;3.10;;;19.60;99.90;;;;;;5053422;28;20443;-68
2023/08/27 07:58:05;;;;;;;10.17;2.90;;;19.70;99.90;;;;;;5053216;28;20491;-69
2023/08/27 08:00:33;;;;;;;8.70;3.63;;;19.70;99.90;;;;;;5053161;28;20452;-69
2023/08/27 08:03:02;;;;;;;10.30;3.17;;;19.70;99.90;;;;;;5052807;28;20490;-71
2023/08/27 08:05:31;;;;;;;9.00;2.70;;;19.60;99.90;;;;;;5037873;28;20518;-67
2023/08/27 08:07:59;;;;;;;11.07;2.90;;;19.40;99.90;;;;;;5033214;28;20500;-68
2023/08/27 08:10:27;;;;;;;8.17;2.87;;;19.30;99.90;;;;;;5032709;28;20452;-71
2023/08/27 08:12:56;;;;;;;8.87;2.73;;;19.10;99.90;;;;;;5033103;28;20441;-68
2023/08/27 08:15:24;;;;;;;7.40;2.10;;;18.90;99.90;;;;;;5032788;28;21006;-69
2023/08/27 08:17:52;;;;;;;7.90;2.10;;;18.70;99.90;;;;;;5032484;28;20838;-69
2023/08/27 08:20:20;;;;;;;7.83;2.50;;;18.60;99.90;;;;;;5038963;28;20447;-69
2023/08/27 08:22:48;;;;;;;7.40;2.10;;;18.60;99.90;;;;;;5052893;28;20486;-70
2023/08/27 08:25:16;;;;;;;7.67;2.30;;;18.60;99.90;;;;;;5052531;28;20533;-70
2023/08/27 08:27:44;;;;;;;8.30;2.50;;;18.60;99.90;;;;;;5052323;28;20509;-71
2023/08/27 08:30:14;;;;;;;7.73;2.50;;;18.80;99.90;;;;;;5052613;28;20454;-70
2023/08/27 08:32:41;;;;;;;8.07;2.10;;;19.00;99.90;;;;;;5052250;28;20530;-70
2023/08/27 08:35:09;;;;;;;7.17;1.90;;;19.30;99.90;;;;;;5052539;28;20440;-69
2023/08/27 08:37:37;;;;;;;8.07;2.53;;;19.60;99.90;;;;;;5051796;28;20472;-69
2023/08/27 08:40:06;;;;;;;7.90;2.33;;;19.80;99.90;;;;;;5052155;28;20440;-68
2023/08/27 08:42:40;;;;;;;10.20;2.30;;;19.90;99.90;;;;;;5052140;28;20561;-71
2023/08/27 08:45:13;;;;;;;7.67;2.07;;;20.00;99.90;;;;;;5051988;28;20482;-69
2023/08/27 08:47:44;;;;;;;10.07;2.20;;;20.00;99.90;;;;;;5051600;28;20460;-69
2023/08/27 08:50:15;;;;;;;7.30;2.00;;;20.20;99.90;;;;;;5052138;28;20448;-70
2023/08/27 08:52:45;;;;;;;8.73;1.87;;;20.30;99.90;;;;;;5051676;28;20452;-70
2023/08/27 08:55:16;;;;;;;7.00;1.80;;;20.30;99.90;;;;;;5032397;28;20449;-69
2023/08/27 08:57:46;;;;;;;8.13;2.07;;;20.50;99.90;;;;;;5032043;28;20514;-69
2023/08/27 09:00:17;;;;;;;7.23;2.40;;;20.60;99.90;;;;;;5032534;28;20531;-69
2023/08/27 09:02:46;;;;;;;7.03;2.13;;;20.90;99.90;;;;;;5031627;28;20468;-70
2023/08/27 09:05:17;;;;;;;7.40;1.93;;;21.10;99.90;;;;;;5031939;28;20472;-70
2023/08/27 09:07:47;;;;;;;7.40;2.27;;;21.20;99.90;;;;;;5043635;28;20505;-69
2023/08/27 09:10:17;;;;;;;8.23;2.17;;;20.90;99.90;;;;;;5049872;28;20578;-69
2023/08/27 09:12:47;;;;;;;7.30;2.03;;;20.60;99.90;;;;;;5051642;28;20526;-71
2023/08/27 09:15:17;;;;;;;7.50;2.10;;;20.50;99.90;;;;;;5051790;28;20555;-71
2023/08/27 09:17:44;;;;;;;8.53;1.77;;;20.40;99.90;;;;;;5051812;28;20467;-69
2023/08/27 09:20:13;;;;;;;7.53;2.33;;;20.20;99.90;;;;;;5050786;28;20543;-69
2023/08/27 09:22:41;;;;;;;8.47;2.10;;;20.10;99.90;;;;;;5052896;28;20444;-70
2023/08/27 09:25:11;;;;;;;7.90;1.90;;;20.20;99.90;;;;;;5068569;28;20517;-70
2023/08/27 09:27:39;;;;;;;7.57;2.50;;;20.30;99.90;;;;;;5059813;28;20470;-70
2023/08/27 09:30:09;;;;;;;7.33;2.00;;;20.50;99.90;;;;;;5066327;28;20446;-73
2023/08/27 09:32:38;;;;;;;7.37;2.10;;;20.70;99.90;;;;;;5057832;28;20467;-71
2023/08/27 09:35:07;;;;;;;8.10;2.50;;;20.80;99.90;;;;;;5043198;28;20860;-70
2023/08/27 09:37:39;;;;;;;8.40;2.90;;;20.70;99.90;;;;;;5046953;28;20464;-70
2023/08/27 09:40:08;;;;;;;7.50;2.00;;;21.00;99.90;;;;;;5049433;28;20443;-70
2023/08/27 09:42:37;;;;;;;7.37;2.60;;;21.20;99.90;;;;;;5049028;28;20459;-71
2023/08/27 09:45:07;;;;;;;8.63;2.17;;;21.60;99.90;;;;;;5049063;28;20472;-70
2023/08/27 09:47:36;;;;;;;6.90;1.97;;;21.60;99.90;;;;;;5048823;28;20491;-69
2023/08/27 09:50:07;;;;;;;7.63;2.37;;;21.80;99.90;;;;;;5045404;28;20448;-70
2023/08/27 09:52:35;;;;;;;8.87;3.73;;;22.10;99.90;;;;;;5044878;28;20448;-71
2023/08/27 09:55:05;;;;;;;7.50;2.10;;;22.50;99.90;;;;;;5040330;28;20444;-71
2023/08/27 09:57:35;;;;;;;8.50;2.30;;;22.80;99.90;;;;;;5043693;28;20460;-78
2023/08/27 10:00:09;;;;;;;7.33;2.00;;;23.20;99.90;;;;;;5039749;28;20523;-71
2023/08/27 10:02:37;;;;;;;8.33;2.50;;;23.30;99.90;;;;;;5039679;28;20547;-71
2023/08/27 10:05:09;;;;;;;7.90;2.50;;;23.70;99.90;;;;;;5044546;28;20487;-71
2023/08/27 10:07:37;;;;;;;8.63;2.77;;;23.40;99.90;;;;;;5042160;28;20525;-70
2023/08/27 10:10:07;;;;;;;8.30;2.40;;;22.90;99.90;;;;;;5037596;28;20441;-69
2023/08/27 10:12:35;;;;;;;9.13;3.07;;;22.30;99.90;;;;;;5048136;28;20487;-69
2023/08/27 10:15:04;;;;;;;7.50;2.67;;;21.80;99.90;;;;;;5045543;28;20440;-69
2023/08/27 10:17:33;;;;;;;9.30;2.50;;;21.60;99.90;;;;;;5029183;28;20465;-70
2023/08/27 10:20:03;;;;;;;7.80;2.57;;;21.70;99.90;;;;;;5028810;28;20449;-71
2023/08/27 10:22:33;;;;;;;7.77;2.50;;;22.00;99.90;;;;;;5031138;28;20531;-71
2023/08/27 10:25:04;;;;;;;9.10;2.60;;;22.30;99.90;;;;;;5041925;28;20563;-71
2023/08/27 10:27:33;;;;;;;8.20;2.93;;;22.60;99.90;;;;;;5048258;28;21000;-70
2023/08/27 10:30:07;;;;;;;9.70;2.80;;;23.00;99.90;;;;;;5055906;28;20459;-71
2023/08/27 10:32:35;;;;;;;8.57;2.80;;;23.10;99.90;;;;;;5048673;28;20440;-70
2023/08/27 10:35:05;;;;;;;8.73;2.90;;;23.20;99.90;;;;;;5042820;28;21205;-70
2023/08/27 10:37:36;;;;;;;9.73;2.77;;;23.60;99.90;;;;;;5047915;28;20533;-69
2023/08/27 10:40:08;;;;;;;8.80;2.23;;;23.50;99.90;;;;;;5048757;28;20435;-69
2023/08/27 10:42:37;;;;;;;9.00;2.60;;;23.40;99.90;;;;;;5053779;28;20440;-70
2023/08/27 10:45:13;;;;;;;8.37;2.67;;;23.80;99.90;;;;;;5048501;28;20511;-69
2023/08/27 10:47:42;;;;;;;7.80;2.47;;;24.00;99.90;;;;;;5047596;28;20550;-69
2023/08/27 10:50:21;;;;;;;8.20;2.60;;;23.70;99.90;;;;;;5047945;28;20837;-70
2023/08/27 10:52:52;;;;;;;9.43;3.07;;;23.90;99.90;;;;;;5045360;28;20436;-70
2023/08/27 10:55:22;;;;;;;8.87;2.77;;;24.10;99.90;;;;;;5036671;28;20441;-70
2023/08/27 10:57:49;;;;;;;8.47;2.30;;;24.30;99.90;;;;;;5039001;28;20502;-70
2023/08/27 11:00:18;;;;;;;9.53;3.33;;;24.30;99.90;;;;;;5039707;28;20452;-69
2023/08/27 11:02:58;;;;;;;7.53;2.27;;;24.10;99.90;;;;;;5037212;28;21057;-70
2023/08/27 11:05:28;;;;;;;7.33;2.10;;;24.10;99.90;;;;;;5042913;28;20545;-70
2023/08/27 11:07:59;;;;;;;7.50;2.20;;;24.20;99.90;;;;;;5049036;28;20468;-69
2023/08/27 11:10:32;;;;;;;7.90;2.50;;;24.40;99.90;;;;;;5051564;28;20500;-69
2023/08/27 11:13:03;;;;;;;8.10;2.10;;;24.80;99.90;;;;;;5039132;28;20436;-70
2023/08/27 11:15:32;;;;;;;7.40;1.93;;;24.80;99.90;;;;;;5037765;28;20447;-71
2023/08/27 11:18:00;;;;;;;10.47;2.33;;;24.90;99.90;;;;;;5049377;28;20477;-70
2023/08/27 11:20:29;;;;;;;8.77;2.63;;;25.00;99.90;;;;;;5044379;28;20455;-69
2023/08/27 11:23:01;;;;;;;8.80;2.40;;;25.30;99.90;;;;;;5042556;28;20888;-70
2023/08/27 11:25:31;;;;;;;7.10;2.13;;;25.60;99.90;;;;;;5051796;28;20478;-70
2023/08/27 11:28:00;;;;;;;8.37;2.23;;;25.90;99.90;;;;;;5057245;28;20530;-70
2023/08/27 11:30:30;;;;;;;7.40;2.33;;;25.90;99.90;;;;;;5051474;28;20468;-70
2023/08/27 11:32:58;;;;;;;8.97;2.30;;;25.70;99.90;;;;;;5052577;28;20925;-70
2023/08/27 11:35:27;;;;;;;9.03;2.73;;;25.40;99.90;;;;;;5044444;28;20451;-70
2023/08/27 11:37:55;;;;;;;10.80;2.77;;;24.80;99.90;;;;;;5040763;28;20467;-70
2023/08/27 11:40:26;;;;;;;8.23;2.57;;;24.10;99.90;;;;;;5047305;28;20479;-70
2023/08/27 11:42:56;;;;;;;9.10;2.57;;;23.80;99.90;;;;;;5047297;28;20966;-70
2023/08/27 11:45:30;;;;;;;8.57;2.17;;;23.80;99.90;;;;;;5047546;28;20482;-69
2023/08/27 11:48:03;;;;;;;10.67;2.40;;;24.00;99.90;;;;;;5042323;28;20451;-67
2023/08/27 11:50:32;;;;;;;9.07;2.43;;;24.30;99.90;;;;;;5046702;28;20444;-66
2023/08/27 11:53:01;;;;;;;9.37;2.57;;;24.40;99.90;;;;;;5046828;28;20493;-66
2023/08/27 11:55:31;;;;;;;9.70;2.90;;;24.40;99.90;;;;;;5047596;28;20440;-66
2023/08/27 11:58:00;;;;;;;7.90;2.27;;;24.20;99.90;;;;;;5047317;28;20521;-66
2023/08/27 12:00:30;;;;;;;9.60;3.20;;;24.40;99.90;;;;;;5043495;28;20441;-66
2023/08/27 12:02:59;;;;;;;8.73;2.97;;;24.20;99.90;;;;;;5039487;28;20448;-66
2023/08/27 12:05:27;;;;;;;7.97;2.53;;;24.40;99.90;;;;;;5044132;28;20440;-66
2023/08/27 12:07:55;;;;;;;8.23;2.80;;;24.60;99.90;;;;;;5036843;28;20567;-67
2023/08/27 12:10:23;;;;;;;8.60;2.40;;;24.70;99.90;;;;;;5041763;28;20454;-66
2023/08/27 12:12:53;;;;;;;8.00;2.57;;;24.90;99.90;;;;;;5046917;28;20954;-66
2023/08/27 12:15:29;;;;;;;10.20;2.53;;;25.00;99.90;;;;;;5046392;28;20442;-67
2023/08/27 12:17:56;;;;;;;9.90;2.63;;;24.60;99.90;;;;;;5046882;28;20462;-67
2023/08/27 12:20:32;;;;;;;8.87;2.53;;;24.60;99.90;;;;;;5038167;28;20452;-67
2023/08/27 12:23:11;;;;;;;7.43;2.30;;;24.80;99.90;;;;;;5045370;28;20513;-67
2023/08/27 12:25:46;;;;;;;8.20;2.30;;;25.10;99.90;;;;;;5049286;28;20510;-66
2023/08/27 12:28:16;;;;;;;8.43;2.53;;;25.10;99.90;;;;;;5050297;28;20535;-66
2023/08/27 12:30:48;;;;;;;8.60;2.73;;;25.30;99.90;;;;;;5052032;28;20487;-66
2023/08/27 12:33:16;;;;;;;7.93;3.03;;;25.20;99.90;;;;;;5049778;28;20482;-66
2023/08/27 12:35:45;;;;;;;8.03;2.40;;;25.30;99.90;;;;;;5066864;28;20448;-66
2023/08/27 12:38:13;;;;;;;8.23;2.40;;;25.30;99.90;;;;;;5050901;28;20484;-67
2023/08/27 12:40:41;;;;;;;8.47;3.00;;;25.30;99.90;;;;;;5050356;28;20498;-67
2023/08/27 12:43:09;;;;;;;8.90;2.37;;;25.20;99.90;;;;;;5049342;28;20438;-66
2023/08/27 12:45:38;;;;;;;7.47;2.23;;;25.10;99.90;;;;;;5040782;28;20441;-66
2023/08/27 12:48:07;;;;;;;9.70;3.10;;;25.30;99.90;;;;;;5040294;28;20460;-65